PWSweather.com
Personal Weather Stations
Station Observations

PoschiavoCH

Lat: 46.31962499999999, Lon: 10.066551000000004

Elevation: 3517

Station Type: WH 1080

http://www.meteoposchiavo.com

High Low Average
Temperature 52.5°F11.4°C 32.0°F0.0°C 39.4°F4.1°C
Dew Point 122.0°F50.0°C 22.6°F-5.2°C 25.5°F-3.6°C
Winds 6.9 mph 11.1 kmh Calm Calm 1.0 mph WSW1.6 kmh WSW
Wind Gusts 8.1 mph13.0 kmh -- 2.0 mph3.2 kmh
Humidity 71% 0% 57%
Pressure 26.74 in905.5 mb 0.00 in0.0 mb -
Precipitation 0.01 in0.3 mm - -
Hour Temp Dew Point Humidity Winds Wind Gusts Pressure Precip Precip Rate Daily Precip Total
12:00 AM 38.3°F3.5°C 24.0°F-4.4°C 56% Calm Calm -- 26.73 in905.2 mb - 0.00 in0.0 mm 0.00 in0.0 mm
12:10 AM 38.7°F3.7°C 23.9°F-4.5°C 55% Calm Calm -- 26.72 in904.8 mb - 0.00 in0.0 mm 0.00 in0.0 mm
12:15 AM 39.0°F3.9°C 23.8°F-4.6°C 54% Calm Calm -- 26.72 in904.8 mb - 0.00 in0.0 mm 0.00 in0.0 mm
12:20 AM 39.0°F3.9°C 23.8°F-4.6°C 54% Calm Calm -- 26.72 in904.8 mb - 0.00 in0.0 mm 0.00 in0.0 mm
12:25 AM 39.0°F3.9°C 23.8°F-4.6°C 54% Calm Calm -- 26.72 in904.8 mb - 0.00 in0.0 mm 0.00 in0.0 mm
12:30 AM 39.0°F3.9°C 24.2°F-4.3°C 55% Calm Calm -- 26.71 in904.5 mb - 0.00 in0.0 mm 0.00 in0.0 mm
12:35 AM 39.0°F3.9°C 24.2°F-4.3°C 55% Calm Calm -- 26.71 in904.5 mb - 0.00 in0.0 mm 0.00 in0.0 mm
12:40 AM 38.7°F3.7°C 23.9°F-4.5°C 55% 1.2 mph NW1.9 kmh NW 1.2 mph1.9 kmh 26.71 in904.5 mb - 0.00 in0.0 mm 0.00 in0.0 mm
12:45 AM 39.0°F3.9°C 24.2°F-4.3°C 55% 1.2 mph NW1.9 kmh NW 2.3 mph3.7 kmh 26.71 in904.5 mb - 0.00 in0.0 mm 0.00 in0.0 mm
12:50 AM 39.2°F4.0°C 23.9°F-4.5°C 54% 1.2 mph NW1.9 kmh NW 1.2 mph1.9 kmh 26.71 in904.5 mb - 0.00 in0.0 mm 0.00 in0.0 mm
12:55 AM 39.2°F4.0°C 23.9°F-4.5°C 54% Calm Calm 1.2 mph1.9 kmh 26.71 in904.5 mb - 0.00 in0.0 mm 0.00 in0.0 mm
01:00 AM 39.2°F4.0°C 23.9°F-4.5°C 54% Calm Calm 1.2 mph1.9 kmh 26.70 in904.2 mb - 0.00 in0.0 mm 0.00 in0.0 mm
01:10 AM 38.8°F3.8°C 24.5°F-4.2°C 56% Calm Calm 3.5 mph5.6 kmh 26.70 in904.2 mb - 0.00 in0.0 mm 0.00 in0.0 mm
01:15 AM 39.0°F3.9°C 24.2°F-4.3°C 55% Calm Calm 1.2 mph1.9 kmh 26.70 in904.2 mb - 0.00 in0.0 mm 0.00 in0.0 mm
01:20 AM 39.0°F3.9°C 24.2°F-4.3°C 55% Calm Calm -- 26.69 in903.8 mb - 0.00 in0.0 mm 0.00 in0.0 mm
01:25 AM 39.0°F3.9°C 24.2°F-4.3°C 55% Calm Calm -- 26.69 in903.8 mb - 0.00 in0.0 mm 0.00 in0.0 mm
01:30 AM 39.0°F3.9°C 23.8°F-4.6°C 54% Calm Calm -- 26.69 in903.8 mb - 0.00 in0.0 mm 0.00 in0.0 mm
01:35 AM 39.0°F3.9°C 23.8°F-4.6°C 54% Calm Calm -- 26.68 in903.5 mb - 0.00 in0.0 mm 0.00 in0.0 mm
01:40 AM 39.0°F3.9°C 24.2°F-4.3°C 55% 1.2 mph NW1.9 kmh NW 1.2 mph1.9 kmh 26.68 in903.5 mb - 0.00 in0.0 mm 0.00 in0.0 mm
01:45 AM 39.2°F4.0°C 23.5°F-4.7°C 53% 1.2 mph W1.9 kmh W 2.3 mph3.7 kmh 26.68 in903.5 mb - 0.00 in0.0 mm 0.00 in0.0 mm
01:50 AM 39.6°F4.2°C 23.8°F-4.6°C 53% 1.2 mph NW1.9 kmh NW 2.3 mph3.7 kmh 26.68 in903.5 mb - 0.00 in0.0 mm 0.00 in0.0 mm
01:55 AM 39.7°F4.3°C 23.5°F-4.7°C 52% 1.2 mph S1.9 kmh S 2.3 mph3.7 kmh 26.68 in903.5 mb - 0.00 in0.0 mm 0.00 in0.0 mm
02:00 AM 39.6°F4.2°C 23.8°F-4.6°C 53% Calm Calm 1.2 mph1.9 kmh 26.67 in903.2 mb - 0.00 in0.0 mm 0.00 in0.0 mm
02:10 AM 38.7°F3.7°C 24.3°F-4.3°C 56% 1.2 mph NW1.9 kmh NW 1.2 mph1.9 kmh 26.67 in903.2 mb - 0.00 in0.0 mm 0.00 in0.0 mm
02:15 AM 38.8°F3.8°C 24.0°F-4.4°C 55% 1.2 mph W1.9 kmh W 1.2 mph1.9 kmh 26.67 in903.2 mb - 0.00 in0.0 mm 0.00 in0.0 mm
02:20 AM 38.8°F3.8°C 24.0°F-4.4°C 55% Calm Calm -- 26.67 in903.2 mb - 0.00 in0.0 mm 0.00 in0.0 mm
02:25 AM 38.8°F3.8°C 24.0°F-4.4°C 55% 1.2 mph W1.9 kmh W 2.3 mph3.7 kmh 26.67 in903.2 mb - 0.00 in0.0 mm 0.00 in0.0 mm
02:30 AM 38.7°F3.7°C 23.9°F-4.5°C 55% Calm Calm 1.2 mph1.9 kmh 26.67 in903.2 mb - 0.00 in0.0 mm 0.00 in0.0 mm
02:35 AM 38.7°F3.7°C 23.9°F-4.5°C 55% Calm Calm -- 26.67 in903.2 mb - 0.00 in0.0 mm 0.00 in0.0 mm
02:40 AM 38.3°F3.5°C 23.5°F-4.7°C 55% Calm Calm -- 26.67 in903.2 mb - 0.00 in0.0 mm 0.00 in0.0 mm
02:45 AM 38.1°F3.4°C 23.4°F-4.8°C 55% 1.2 mph W1.9 kmh W 1.2 mph1.9 kmh 26.68 in903.5 mb - 0.00 in0.0 mm 0.00 in0.0 mm
02:50 AM 38.3°F3.5°C 23.5°F-4.7°C 55% Calm Calm -- 26.68 in903.5 mb - 0.00 in0.0 mm 0.00 in0.0 mm
02:55 AM 38.3°F3.5°C 23.5°F-4.7°C 55% 1.2 mph W1.9 kmh W 3.5 mph5.6 kmh 26.67 in903.2 mb - 0.00 in0.0 mm 0.00 in0.0 mm
03:00 AM 38.5°F3.6°C 23.7°F-4.6°C 55% 1.2 mph SW1.9 kmh SW 3.5 mph5.6 kmh 26.67 in903.2 mb - 0.00 in0.0 mm 0.00 in0.0 mm
03:10 AM 38.0°F3.3°C 23.6°F-4.7°C 56% Calm Calm -- 26.67 in903.2 mb - 0.00 in0.0 mm 0.00 in0.0 mm
03:15 AM 37.6°F3.1°C 23.7°F-4.6°C 57% Calm Calm -- 26.67 in903.2 mb - 0.00 in0.0 mm 0.00 in0.0 mm
03:20 AM 37.6°F3.1°C 23.7°F-4.6°C 57% Calm Calm 1.2 mph1.9 kmh 26.67 in903.2 mb - 0.00 in0.0 mm 0.00 in0.0 mm
03:25 AM 37.6°F3.1°C 23.7°F-4.6°C 57% Calm Calm -- 26.67 in903.2 mb - 0.00 in0.0 mm 0.00 in0.0 mm
03:30 AM 37.6°F3.1°C 23.7°F-4.6°C 57% 1.2 mph W1.9 kmh W 2.3 mph3.7 kmh 26.67 in903.2 mb - 0.00 in0.0 mm 0.00 in0.0 mm
03:35 AM 37.8°F3.2°C 23.5°F-4.7°C 56% 1.2 mph NW1.9 kmh NW 3.5 mph5.6 kmh 26.67 in903.2 mb - 0.00 in0.0 mm 0.00 in0.0 mm
03:40 AM 38.1°F3.4°C 23.4°F-4.8°C 55% 1.2 mph NW1.9 kmh NW 3.5 mph5.6 kmh 26.67 in903.2 mb - 0.00 in0.0 mm 0.00 in0.0 mm
03:45 AM 38.3°F3.5°C 23.5°F-4.7°C 55% Calm Calm 1.2 mph1.9 kmh 26.67 in903.2 mb - 0.00 in0.0 mm 0.00 in0.0 mm
03:50 AM 38.1°F3.4°C 23.8°F-4.6°C 56% Calm Calm -- 26.66 in902.8 mb - 0.00 in0.0 mm 0.00 in0.0 mm
03:55 AM 37.8°F3.2°C 23.5°F-4.7°C 56% Calm Calm -- 26.67 in903.2 mb - 0.00 in0.0 mm 0.00 in0.0 mm
04:00 AM 37.8°F3.2°C 23.9°F-4.5°C 57% 1.2 mph NW1.9 kmh NW 2.3 mph3.7 kmh 26.66 in902.8 mb - 0.00 in0.0 mm 0.00 in0.0 mm
04:10 AM 38.1°F3.4°C 24.2°F-4.3°C 57% Calm Calm -- 26.66 in902.8 mb - 0.00 in0.0 mm 0.00 in0.0 mm
04:15 AM 37.9°F3.3°C 24.0°F-4.4°C 57% Calm Calm -- 26.65 in902.5 mb - 0.00 in0.0 mm 0.00 in0.0 mm
04:20 AM 37.9°F3.3°C 24.0°F-4.4°C 57% Calm Calm -- 26.66 in902.8 mb - 0.00 in0.0 mm 0.00 in0.0 mm
04:25 AM 38.1°F3.4°C 23.8°F-4.6°C 56% Calm Calm -- 26.65 in902.5 mb - 0.00 in0.0 mm 0.00 in0.0 mm
04:30 AM 37.9°F3.3°C 24.0°F-4.4°C 57% Calm Calm -- 26.66 in902.8 mb - 0.00 in0.0 mm 0.00 in0.0 mm
04:35 AM 37.6°F3.1°C 23.7°F-4.6°C 57% Calm Calm -- 26.65 in902.5 mb - 0.00 in0.0 mm 0.00 in0.0 mm
04:40 AM 37.4°F3.0°C 24.0°F-4.4°C 58% 1.2 mph W1.9 kmh W 2.3 mph3.7 kmh 26.65 in902.5 mb - 0.00 in0.0 mm 0.00 in0.0 mm
04:45 AM 37.1°F2.8°C 22.8°F-5.1°C 56% Calm Calm 2.3 mph3.7 kmh 26.66 in902.8 mb - 0.00 in0.0 mm 0.00 in0.0 mm
04:50 AM 37.2°F2.9°C 22.9°F-5.1°C 56% 1.2 mph W1.9 kmh W 3.5 mph5.6 kmh 26.65 in902.5 mb - 0.00 in0.0 mm 0.00 in0.0 mm
04:55 AM 37.4°F3.0°C 24.8°F-4.0°C 60% Calm Calm 1.2 mph1.9 kmh 26.65 in902.5 mb - 0.00 in0.0 mm 0.00 in0.0 mm
05:00 AM 37.6°F3.1°C 24.9°F-3.9°C 60% 1.2 mph NW1.9 kmh NW 2.3 mph3.7 kmh 26.65 in902.5 mb - 0.00 in0.0 mm 0.00 in0.0 mm
05:10 AM 37.4°F3.0°C 24.8°F-4.0°C 60% 1.2 mph SW1.9 kmh SW 2.3 mph3.7 kmh 26.65 in902.5 mb - 0.00 in0.0 mm 0.00 in0.0 mm
05:15 AM 37.0°F2.8°C 23.2°F-4.9°C 57% Calm Calm 1.2 mph1.9 kmh 26.66 in902.8 mb - 0.00 in0.0 mm 0.00 in0.0 mm
05:20 AM 37.0°F2.8°C 23.2°F-4.9°C 57% Calm Calm 1.2 mph1.9 kmh 26.66 in902.8 mb - 0.00 in0.0 mm 0.00 in0.0 mm
05:25 AM 37.0°F2.8°C 23.2°F-4.9°C 57% Calm Calm -- 26.66 in902.8 mb - 0.00 in0.0 mm 0.00 in0.0 mm
05:30 AM 37.0°F2.8°C 23.2°F-4.9°C 57% 2.3 mph W3.7 kmh W 3.5 mph5.6 kmh 26.66 in902.8 mb - 0.00 in0.0 mm 0.00 in0.0 mm
05:35 AM 36.9°F2.7°C 23.4°F-4.8°C 58% 1.2 mph SW1.9 kmh SW 1.2 mph1.9 kmh 26.66 in902.8 mb - 0.00 in0.0 mm 0.00 in0.0 mm
05:40 AM 36.7°F2.6°C 23.3°F-4.8°C 58% Calm Calm -- 26.66 in902.8 mb - 0.00 in0.0 mm 0.00 in0.0 mm
05:45 AM 36.5°F2.5°C 23.1°F-4.9°C 58% Calm Calm -- 26.67 in903.2 mb - 0.00 in0.0 mm 0.00 in0.0 mm
05:50 AM 36.5°F2.5°C 23.1°F-4.9°C 58% Calm Calm -- 26.66 in902.8 mb - 0.00 in0.0 mm 0.00 in0.0 mm
05:55 AM 36.5°F2.5°C 23.1°F-4.9°C 58% Calm Calm -- 26.66 in902.8 mb - 0.00 in0.0 mm 0.00 in0.0 mm
06:00 AM 36.5°F2.5°C 23.1°F-4.9°C 58% Calm Calm -- 26.66 in902.8 mb - 0.00 in0.0 mm 0.00 in0.0 mm
06:10 AM 36.3°F2.4°C 22.9°F-5.1°C 58% Calm Calm -- 26.65 in902.5 mb - 0.00 in0.0 mm 0.00 in0.0 mm
06:15 AM 36.3°F2.4°C 22.9°F-5.1°C 58% Calm Calm -- 26.65 in902.5 mb - 0.00 in0.0 mm 0.00 in0.0 mm
06:20 AM 36.3°F2.4°C 22.9°F-5.1°C 58% Calm Calm -- 26.65 in902.5 mb - 0.00 in0.0 mm 0.00 in0.0 mm
06:25 AM 36.3°F2.4°C 22.9°F-5.1°C 58% 1.2 mph S1.9 kmh S 1.2 mph1.9 kmh 26.65 in902.5 mb - 0.00 in0.0 mm 0.00 in0.0 mm
06:30 AM 36.3°F2.4°C 23.3°F-4.8°C 59% Calm Calm -- 26.66 in902.8 mb - 0.00 in0.0 mm 0.00 in0.0 mm
06:35 AM 36.3°F2.4°C 23.3°F-4.8°C 59% Calm Calm -- 26.65 in902.5 mb - 0.00 in0.0 mm 0.00 in0.0 mm
06:40 AM 36.1°F2.3°C 23.2°F-4.9°C 59% 1.2 mph NW1.9 kmh NW 3.5 mph5.6 kmh 26.65 in902.5 mb - 0.00 in0.0 mm 0.00 in0.0 mm
06:45 AM 36.1°F2.3°C 23.6°F-4.7°C 60% 1.2 mph W1.9 kmh W 3.5 mph5.6 kmh 26.65 in902.5 mb - 0.00 in0.0 mm 0.00 in0.0 mm
06:50 AM 36.3°F2.4°C 23.8°F-4.6°C 60% 1.2 mph W1.9 kmh W 2.3 mph3.7 kmh 26.65 in902.5 mb - 0.00 in0.0 mm 0.00 in0.0 mm
06:55 AM 36.3°F2.4°C 23.8°F-4.6°C 60% 1.2 mph W1.9 kmh W 2.3 mph3.7 kmh 26.65 in902.5 mb - 0.00 in0.0 mm 0.00 in0.0 mm
07:00 AM 36.5°F2.5°C 23.9°F-4.5°C 60% Calm Calm 1.2 mph1.9 kmh 26.65 in902.5 mb - 0.00 in0.0 mm 0.00 in0.0 mm
07:10 AM 36.5°F2.5°C 23.5°F-4.7°C 59% 1.2 mph W1.9 kmh W 2.3 mph3.7 kmh 26.65 in902.5 mb - 0.00 in0.0 mm 0.00 in0.0 mm
07:15 AM 36.3°F2.4°C 23.8°F-4.6°C 60% Calm Calm 1.2 mph1.9 kmh 26.65 in902.5 mb - 0.00 in0.0 mm 0.00 in0.0 mm
07:20 AM 36.3°F2.4°C 23.8°F-4.6°C 60% Calm Calm -- 26.66 in902.8 mb - 0.00 in0.0 mm 0.00 in0.0 mm
07:25 AM 36.3°F2.4°C 23.8°F-4.6°C 60% Calm Calm -- 26.66 in902.8 mb - 0.00 in0.0 mm 0.00 in0.0 mm
07:30 AM 36.3°F2.4°C 23.8°F-4.6°C 60% 1.2 mph W1.9 kmh W 1.2 mph1.9 kmh 26.67 in903.2 mb - 0.00 in0.0 mm 0.00 in0.0 mm
07:35 AM 36.3°F2.4°C 23.8°F-4.6°C 60% Calm Calm 1.2 mph1.9 kmh 26.66 in902.8 mb - 0.00 in0.0 mm 0.00 in0.0 mm
07:40 AM 36.3°F2.4°C 23.8°F-4.6°C 60% Calm Calm 1.2 mph1.9 kmh 26.66 in902.8 mb - 0.00 in0.0 mm 0.00 in0.0 mm
07:45 AM 36.5°F2.5°C 23.9°F-4.5°C 60% Calm Calm -- 26.66 in902.8 mb - 0.00 in0.0 mm 0.00 in0.0 mm
07:50 AM 36.5°F2.5°C 23.9°F-4.5°C 60% Calm Calm 1.2 mph1.9 kmh 26.67 in903.2 mb - 0.00 in0.0 mm 0.00 in0.0 mm
07:55 AM 36.5°F2.5°C 23.9°F-4.5°C 60% Calm Calm -- 26.67 in903.2 mb - 0.00 in0.0 mm 0.00 in0.0 mm
08:00 AM 36.5°F2.5°C 23.9°F-4.5°C 60% Calm Calm 1.2 mph1.9 kmh 26.67 in903.2 mb - 0.00 in0.0 mm 0.00 in0.0 mm
08:10 AM 36.3°F2.4°C 23.8°F-4.6°C 60% 1.2 mph S1.9 kmh S 2.3 mph3.7 kmh 26.67 in903.2 mb - 0.00 in0.0 mm 0.00 in0.0 mm
08:15 AM 36.3°F2.4°C 24.1°F-4.4°C 61% Calm Calm 1.2 mph1.9 kmh 26.67 in903.2 mb - 0.00 in0.0 mm 0.00 in0.0 mm
08:20 AM 36.3°F2.4°C 24.1°F-4.4°C 61% 1.2 mph S1.9 kmh S 1.2 mph1.9 kmh 26.67 in903.2 mb - 0.01 in0.3 mm 0.01 in0.3 mm
08:25 AM 36.0°F2.2°C 23.8°F-4.6°C 61% 1.2 mph SE1.9 kmh SE 3.5 mph5.6 kmh 26.67 in903.2 mb - 0.01 in0.3 mm 0.01 in0.3 mm
08:30 AM 35.8°F2.1°C 24.0°F-4.4°C 62% Calm Calm 2.3 mph3.7 kmh 26.67 in903.2 mb - 0.00 in0.0 mm 0.01 in0.3 mm
08:35 AM 35.6°F2.0°C 24.3°F-4.3°C 63% 1.2 mph NW1.9 kmh NW 3.5 mph5.6 kmh 26.67 in903.2 mb - 0.00 in0.0 mm 0.01 in0.3 mm
08:40 AM 35.6°F2.0°C 24.6°F-4.1°C 64% 2.3 mph W3.7 kmh W 4.6 mph7.4 kmh 26.67 in903.2 mb - 0.00 in0.0 mm 0.01 in0.3 mm
08:45 AM 35.6°F2.0°C 25.0°F-3.9°C 65% 2.3 mph NW3.7 kmh NW 3.5 mph5.6 kmh 26.67 in903.2 mb - 0.00 in0.0 mm 0.01 in0.3 mm
08:50 AM 36.0°F2.2°C 25.3°F-3.7°C 65% 2.3 mph NW3.7 kmh NW 3.5 mph5.6 kmh 26.67 in903.2 mb - 0.00 in0.0 mm 0.01 in0.3 mm
08:55 AM 36.0°F2.2°C 25.3°F-3.7°C 65% 2.3 mph S3.7 kmh S 3.5 mph5.6 kmh 26.66 in902.8 mb - 0.00 in0.0 mm 0.01 in0.3 mm
09:00 AM 36.0°F2.2°C 25.7°F-3.5°C 66% Calm Calm 1.2 mph1.9 kmh 26.67 in903.2 mb - 0.00 in0.0 mm 0.01 in0.3 mm
09:10 AM 36.1°F2.3°C 25.9°F-3.4°C 66% 1.2 mph SW1.9 kmh SW 2.3 mph3.7 kmh 26.68 in903.5 mb - 0.00 in0.0 mm 0.01 in0.3 mm
09:15 AM 36.1°F2.3°C 26.2°F-3.2°C 67% 1.2 mph SW1.9 kmh SW 1.2 mph1.9 kmh 26.67 in903.2 mb - 0.00 in0.0 mm 0.01 in0.3 mm
09:20 AM 36.3°F2.4°C 26.4°F-3.1°C 67% Calm Calm -- 26.67 in903.2 mb - 0.00 in0.0 mm 0.01 in0.3 mm
09:25 AM 36.3°F2.4°C 26.4°F-3.1°C 67% Calm Calm -- 26.67 in903.2 mb - 0.00 in0.0 mm 0.01 in0.3 mm
09:30 AM 36.7°F2.6°C 26.7°F-2.9°C 67% Calm Calm 1.2 mph1.9 kmh 26.67 in903.2 mb - 0.00 in0.0 mm 0.01 in0.3 mm
09:35 AM 37.0°F2.8°C 27.1°F-2.7°C 67% Calm Calm 1.2 mph1.9 kmh 26.67 in903.2 mb - 0.00 in0.0 mm 0.01 in0.3 mm
09:40 AM 37.2°F2.9°C 27.3°F-2.6°C 67% Calm Calm 1.2 mph1.9 kmh 26.67 in903.2 mb - 0.00 in0.0 mm 0.01 in0.3 mm
09:45 AM 37.4°F3.0°C 28.9°F-1.7°C 71% Calm Calm -- 26.67 in903.2 mb - 0.00 in0.0 mm 0.01 in0.3 mm
09:50 AM 37.9°F3.3°C 29.4°F-1.4°C 71% Calm Calm 1.2 mph1.9 kmh 26.66 in902.8 mb - 0.00 in0.0 mm 0.01 in0.3 mm
09:55 AM 38.1°F3.4°C 29.5°F-1.4°C 71% Calm Calm 1.2 mph1.9 kmh 26.67 in903.2 mb - 0.00 in0.0 mm 0.01 in0.3 mm
10:00 AM 38.6°F3.7°C 29.7°F-1.3°C 70% Calm Calm 1.2 mph1.9 kmh 26.67 in903.2 mb - 0.00 in0.0 mm 0.01 in0.3 mm
10:10 AM 41.7°F5.4°C 31.2°F-0.4°C 66% Calm Calm 1.2 mph1.9 kmh 26.66 in902.8 mb - 0.00 in0.0 mm 0.01 in0.3 mm
10:15 AM 44.4°F6.9°C 32.6°F0.3°C 63% Calm Calm 1.2 mph1.9 kmh 26.66 in902.8 mb - 0.00 in0.0 mm 0.01 in0.3 mm
10:20 AM 46.2°F7.9°C 32.2°F0.1°C 58% 1.2 mph W1.9 kmh W 1.2 mph1.9 kmh 26.66 in902.8 mb - 0.00 in0.0 mm 0.01 in0.3 mm
10:25 AM 47.6°F8.7°C 32.2°F0.1°C 55% Calm Calm -- 26.65 in902.5 mb - 0.00 in0.0 mm 0.01 in0.3 mm
10:30 AM 49.6°F9.8°C 32.2°F0.1°C 51% 1.2 mph S1.9 kmh S 3.5 mph5.6 kmh 26.66 in902.8 mb - 0.00 in0.0 mm 0.01 in0.3 mm
10:35 AM 48.9°F9.4°C 29.6°F-1.3°C 47% Calm Calm 2.3 mph3.7 kmh 26.66 in902.8 mb - 0.00 in0.0 mm 0.01 in0.3 mm
10:40 AM 48.7°F9.3°C 29.4°F-1.4°C 47% 3.5 mph W5.6 kmh W 3.5 mph5.6 kmh 26.66 in902.8 mb - 0.00 in0.0 mm 0.01 in0.3 mm
10:45 AM 49.1°F9.5°C 30.2°F-1.0°C 48% 4.6 mph NW7.4 kmh NW 5.8 mph9.3 kmh 26.65 in902.5 mb - 0.00 in0.0 mm 0.01 in0.3 mm
10:50 AM 49.3°F9.6°C 29.3°F-1.5°C 46% 3.5 mph W5.6 kmh W 3.5 mph5.6 kmh 26.66 in902.8 mb - 0.00 in0.0 mm 0.01 in0.3 mm
10:55 AM 48.4°F9.1°C 28.5°F-1.9°C 46% 2.3 mph W3.7 kmh W 4.6 mph7.4 kmh 26.66 in902.8 mb - 0.00 in0.0 mm 0.01 in0.3 mm
11:00 AM 49.8°F9.9°C 29.8°F-1.2°C 46% 3.5 mph NW5.6 kmh NW 4.6 mph7.4 kmh 26.65 in902.5 mb - 0.00 in0.0 mm 0.01 in0.3 mm
11:10 AM 50.5°F10.3°C 28.3°F-2.1°C 42% 3.5 mph NW5.6 kmh NW 5.8 mph9.3 kmh 26.65 in902.5 mb - 0.00 in0.0 mm 0.01 in0.3 mm
11:15 AM 51.1°F10.6°C 28.8°F-1.8°C 42% 5.8 mph NW9.3 kmh NW 8.1 mph13.0 kmh 26.65 in902.5 mb - 0.00 in0.0 mm 0.01 in0.3 mm
11:20 AM 50.9°F10.5°C 28.0°F-2.2°C 41% 4.6 mph NW7.4 kmh NW 8.1 mph13.0 kmh 26.65 in902.5 mb - 0.00 in0.0 mm 0.01 in0.3 mm
11:25 AM 50.9°F10.5°C 28.6°F-1.9°C 42% 3.5 mph NW5.6 kmh NW 5.8 mph9.3 kmh 26.65 in902.5 mb - 0.00 in0.0 mm 0.01 in0.3 mm
11:30 AM 51.6°F10.9°C 29.2°F-1.6°C 42% 3.5 mph SE5.6 kmh SE 5.8 mph9.3 kmh 26.65 in902.5 mb - 0.00 in0.0 mm 0.01 in0.3 mm
11:35 AM 51.3°F10.7°C 28.3°F-2.1°C 41% 4.6 mph NW7.4 kmh NW 5.8 mph9.3 kmh 26.66 in902.8 mb - 0.00 in0.0 mm 0.01 in0.3 mm
11:40 AM 50.2°F10.1°C 27.9°F-2.3°C 42% 4.6 mph NW7.4 kmh NW 6.9 mph11.1 kmh 26.66 in902.8 mb - 0.00 in0.0 mm 0.01 in0.3 mm
11:45 AM 47.7°F8.7°C 27.4°F-2.6°C 45% 3.5 mph NW5.6 kmh NW 4.6 mph7.4 kmh 26.65 in902.5 mb - 0.00 in0.0 mm 0.01 in0.3 mm
11:50 AM 47.1°F8.4°C 27.4°F-2.6°C 46% 4.6 mph WNW7.4 kmh WNW 5.8 mph9.3 kmh 26.65 in902.5 mb - 0.00 in0.0 mm 0.01 in0.3 mm
11:55 AM 47.5°F8.6°C 27.2°F-2.7°C 45% 4.6 mph WNW7.4 kmh WNW 5.8 mph9.3 kmh 26.65 in902.5 mb - 0.00 in0.0 mm 0.01 in0.3 mm
12:00 PM 48.5°F9.2°C 27.0°F-2.8°C 43% 3.5 mph WNW5.6 kmh WNW 5.8 mph9.3 kmh 26.65 in902.5 mb - 0.00 in0.0 mm 0.01 in0.3 mm
12:10 PM 50.2°F10.1°C 27.9°F-2.3°C 42% 3.5 mph SE5.6 kmh SE 5.8 mph9.3 kmh 26.65 in902.5 mb - 0.00 in0.0 mm 0.01 in0.3 mm
12:15 PM 50.2°F10.1°C 28.0°F-2.2°C 42% 3.5 mph SE5.6 kmh SE 5.8 mph9.3 kmh 26.64 in902.1 mb - 0.00 in0.0 mm 0.01 in0.3 mm
12:20 PM 49.7°F9.8°C 28.0°F-2.2°C 43% 4.6 mph SE7.4 kmh SE 6.9 mph11.1 kmh 26.65 in902.5 mb - 0.00 in0.0 mm 0.01 in0.3 mm
12:25 PM 50.1°F10.1°C 28.5°F-1.9°C 43% 3.5 mph SE5.6 kmh SE 8.1 mph13.0 kmh 26.64 in902.1 mb - 0.00 in0.0 mm 0.01 in0.3 mm
12:30 PM 50.2°F10.1°C 27.4°F-2.6°C 41% 3.5 mph SE5.6 kmh SE 5.8 mph9.3 kmh 26.64 in902.1 mb - 0.00 in0.0 mm 0.01 in0.3 mm
12:35 PM 49.6°F9.8°C 28.0°F-2.2°C 43% 3.5 mph W5.6 kmh W 4.6 mph7.4 kmh 26.64 in902.1 mb - 0.00 in0.0 mm 0.01 in0.3 mm
12:40 PM 51.6°F10.9°C 28.6°F-1.9°C 41% 2.3 mph W3.7 kmh W 4.6 mph7.4 kmh 26.64 in902.1 mb - 0.00 in0.0 mm 0.01 in0.3 mm
12:45 PM 52.5°F11.4°C 28.2°F-2.1°C 39% 3.5 mph W5.6 kmh W 4.6 mph7.4 kmh 26.64 in902.1 mb - 0.00 in0.0 mm 0.01 in0.3 mm
12:50 PM 52.5°F11.4°C 28.2°F-2.1°C 39% 1.2 mph NW1.9 kmh NW 2.3 mph3.7 kmh 26.65 in902.5 mb - 0.00 in0.0 mm 0.01 in0.3 mm
12:55 PM 32.0°F0.0°C 122.0°F50.0°C 0% Calm Calm -- 0.00 in0.0 mb - 0.01 in0.3 mm 0.01 in0.3 mm
01:00 PM 49.8°F9.9°C 28.2°F-2.1°C 43% 3.5 mph W5.6 kmh W 6.9 mph11.1 kmh 26.64 in902.1 mb - 0.01 in0.3 mm 0.01 in0.3 mm
01:10 PM 47.8°F8.8°C 29.0°F-1.7°C 48% 5.8 mph W9.3 kmh W 8.1 mph13.0 kmh 26.65 in902.5 mb - 0.00 in0.0 mm 0.01 in0.3 mm
01:15 PM 47.7°F8.7°C 27.9°F-2.3°C 46% 6.9 mph W11.1 kmh W 8.1 mph13.0 kmh 26.64 in902.1 mb - 0.00 in0.0 mm 0.01 in0.3 mm
01:20 PM 47.5°F8.6°C 28.2°F-2.1°C 47% 5.8 mph W9.3 kmh W 5.8 mph9.3 kmh 26.65 in902.5 mb - 0.00 in0.0 mm 0.01 in0.3 mm
01:25 PM 46.2°F7.9°C 27.1°F-2.7°C 47% 3.5 mph SW5.6 kmh SW 5.8 mph9.3 kmh 26.65 in902.5 mb - 0.00 in0.0 mm 0.01 in0.3 mm
01:30 PM 47.1°F8.4°C 27.9°F-2.3°C 47% 5.8 mph SW9.3 kmh SW 8.1 mph13.0 kmh 26.64 in902.1 mb - 0.00 in0.0 mm 0.01 in0.3 mm
01:35 PM 48.5°F9.2°C 28.7°F-1.8°C 46% 3.5 mph SE5.6 kmh SE 4.6 mph7.4 kmh 26.64 in902.1 mb - 0.00 in0.0 mm 0.01 in0.3 mm
01:40 PM 50.5°F10.3°C 28.8°F-1.8°C 43% 3.5 mph W5.6 kmh W 5.8 mph9.3 kmh 26.64 in902.1 mb - 0.00 in0.0 mm 0.01 in0.3 mm
01:45 PM 50.7°F10.4°C 27.8°F-2.3°C 41% 2.3 mph W3.7 kmh W 5.8 mph9.3 kmh 26.64 in902.1 mb - 0.00 in0.0 mm 0.01 in0.3 mm
01:50 PM 50.6°F10.3°C 27.8°F-2.3°C 41% 2.3 mph SE3.7 kmh SE 5.8 mph9.3 kmh 26.64 in902.1 mb - 0.00 in0.0 mm 0.01 in0.3 mm
01:55 PM 50.5°F10.3°C 28.8°F-1.8°C 43% 3.5 mph SE5.6 kmh SE 5.8 mph9.3 kmh 26.64 in902.1 mb - 0.00 in0.0 mm 0.01 in0.3 mm
02:00 PM 50.7°F10.4°C 28.4°F-2.0°C 42% 3.5 mph SE5.6 kmh SE 4.6 mph7.4 kmh 26.64 in902.1 mb - 0.00 in0.0 mm 0.01 in0.3 mm
02:10 PM 50.9°F10.5°C 27.4°F-2.6°C 40% 3.5 mph NW5.6 kmh NW 5.8 mph9.3 kmh 26.64 in902.1 mb - 0.00 in0.0 mm 0.01 in0.3 mm
02:15 PM 48.8°F9.3°C 26.7°F-2.9°C 42% Calm Calm 2.3 mph3.7 kmh 26.64 in902.1 mb - 0.00 in0.0 mm 0.01 in0.3 mm
02:20 PM 45.9°F7.7°C 25.7°F-3.5°C 45% 1.2 mph S1.9 kmh S 2.3 mph3.7 kmh 26.64 in902.1 mb - 0.00 in0.0 mm 0.01 in0.3 mm
02:25 PM 44.3°F6.8°C 25.8°F-3.4°C 48% Calm Calm 1.2 mph1.9 kmh 26.64 in902.1 mb - 0.00 in0.0 mm 0.01 in0.3 mm
02:30 PM 43.2°F6.2°C 25.3°F-3.7°C 49% Calm Calm -- 26.64 in902.1 mb - 0.00 in0.0 mm 0.01 in0.3 mm
02:35 PM 42.6°F5.9°C 25.8°F-3.4°C 51% 1.2 mph S1.9 kmh S 2.3 mph3.7 kmh 26.64 in902.1 mb - 0.00 in0.0 mm 0.01 in0.3 mm
02:40 PM 42.1°F5.6°C 25.7°F-3.5°C 52% Calm Calm 1.2 mph1.9 kmh 26.64 in902.1 mb - 0.00 in0.0 mm 0.01 in0.3 mm
02:45 PM 41.7°F5.4°C 25.8°F-3.4°C 53% 2.3 mph NW3.7 kmh NW 3.5 mph5.6 kmh 26.64 in902.1 mb - 0.00 in0.0 mm 0.01 in0.3 mm
02:50 PM 41.7°F5.4°C 26.3°F-3.2°C 54% 1.2 mph SW1.9 kmh SW 3.5 mph5.6 kmh 26.64 in902.1 mb - 0.00 in0.0 mm 0.01 in0.3 mm
02:55 PM 41.5°F5.3°C 26.1°F-3.3°C 54% 2.3 mph SW3.7 kmh SW 3.5 mph5.6 kmh 26.64 in902.1 mb - 0.00 in0.0 mm 0.01 in0.3 mm
03:00 PM 41.4°F5.2°C 26.0°F-3.3°C 54% Calm Calm 1.2 mph1.9 kmh 26.64 in902.1 mb - 0.00 in0.0 mm 0.01 in0.3 mm
03:10 PM 40.5°F4.7°C 26.4°F-3.1°C 57% Calm Calm 3.5 mph5.6 kmh 26.64 in902.1 mb - 0.00 in0.0 mm 0.01 in0.3 mm
03:15 PM 39.8°F4.3°C 26.2°F-3.2°C 58% Calm Calm 1.2 mph1.9 kmh 26.65 in902.5 mb - 0.00 in0.0 mm 0.01 in0.3 mm
03:20 PM 39.7°F4.3°C 26.6°F-3.0°C 59% 1.2 mph NW1.9 kmh NW 3.5 mph5.6 kmh 26.65 in902.5 mb - 0.00 in0.0 mm 0.01 in0.3 mm
03:25 PM 39.7°F4.3°C 26.6°F-3.0°C 59% 2.3 mph NW3.7 kmh NW 3.5 mph5.6 kmh 26.65 in902.5 mb - 0.00 in0.0 mm 0.01 in0.3 mm
03:30 PM 40.1°F4.5°C 26.9°F-2.8°C 59% 1.2 mph W1.9 kmh W 3.5 mph5.6 kmh 26.65 in902.5 mb - 0.00 in0.0 mm 0.01 in0.3 mm
03:35 PM 40.3°F4.6°C 27.1°F-2.7°C 59% 1.2 mph NW1.9 kmh NW 1.2 mph1.9 kmh 26.65 in902.5 mb - 0.00 in0.0 mm 0.01 in0.3 mm
03:40 PM 40.1°F4.5°C 26.9°F-2.8°C 59% Calm Calm -- 26.65 in902.5 mb - 0.00 in0.0 mm 0.01 in0.3 mm
03:45 PM 39.6°F4.2°C 26.4°F-3.1°C 59% 1.2 mph SW1.9 kmh SW 2.3 mph3.7 kmh 26.65 in902.5 mb - 0.00 in0.0 mm 0.01 in0.3 mm
03:50 PM 39.2°F4.0°C 26.1°F-3.3°C 59% Calm Calm 1.2 mph1.9 kmh 26.66 in902.8 mb - 0.00 in0.0 mm 0.01 in0.3 mm
03:55 PM 39.0°F3.9°C 26.7°F-2.9°C 61% 1.2 mph W1.9 kmh W 2.3 mph3.7 kmh 26.65 in902.5 mb - 0.00 in0.0 mm 0.01 in0.3 mm
04:00 PM 38.8°F3.8°C 26.9°F-2.8°C 62% Calm Calm -- 26.66 in902.8 mb - 0.00 in0.0 mm 0.01 in0.3 mm
04:10 PM 39.2°F4.0°C 26.9°F-2.8°C 61% 1.2 mph NW1.9 kmh NW 2.3 mph3.7 kmh 26.66 in902.8 mb - 0.00 in0.0 mm 0.01 in0.3 mm
04:15 PM 39.2°F4.0°C 26.9°F-2.8°C 61% Calm Calm -- 26.67 in903.2 mb - 0.00 in0.0 mm 0.01 in0.3 mm
04:20 PM 39.2°F4.0°C 26.9°F-2.8°C 61% Calm Calm 1.2 mph1.9 kmh 26.66 in902.8 mb - 0.00 in0.0 mm 0.01 in0.3 mm
04:25 PM 38.8°F3.8°C 26.9°F-2.8°C 62% Calm Calm -- 26.67 in903.2 mb - 0.00 in0.0 mm 0.01 in0.3 mm
04:30 PM 38.5°F3.6°C 26.6°F-3.0°C 62% Calm Calm -- 26.67 in903.2 mb - 0.00 in0.0 mm 0.01 in0.3 mm
04:35 PM 38.3°F3.5°C 26.4°F-3.1°C 62% Calm Calm -- 26.67 in903.2 mb - 0.00 in0.0 mm 0.01 in0.3 mm
04:40 PM 38.3°F3.5°C 26.8°F-2.9°C 63% 2.3 mph NW3.7 kmh NW 3.5 mph5.6 kmh 26.67 in903.2 mb - 0.00 in0.0 mm 0.01 in0.3 mm
04:45 PM 38.8°F3.8°C 27.3°F-2.6°C 63% 1.2 mph NW1.9 kmh NW 3.5 mph5.6 kmh 26.67 in903.2 mb - 0.00 in0.0 mm 0.01 in0.3 mm
04:50 PM 38.7°F3.7°C 26.8°F-2.9°C 62% 1.2 mph S1.9 kmh S 2.3 mph3.7 kmh 26.68 in903.5 mb - 0.00 in0.0 mm 0.01 in0.3 mm
04:55 PM 38.3°F3.5°C 26.4°F-3.1°C 62% Calm Calm -- 26.68 in903.5 mb - 0.00 in0.0 mm 0.01 in0.3 mm
05:00 PM 37.6°F3.1°C 25.7°F-3.5°C 62% 1.2 mph W1.9 kmh W 3.5 mph5.6 kmh 26.68 in903.5 mb - 0.00 in0.0 mm 0.01 in0.3 mm
05:10 PM 37.2°F2.9°C 24.2°F-4.3°C 59% 2.3 mph S3.7 kmh S 3.5 mph5.6 kmh 26.69 in903.8 mb - 0.00 in0.0 mm 0.01 in0.3 mm
05:15 PM 36.9°F2.7°C 23.9°F-4.5°C 59% Calm Calm -- 26.69 in903.8 mb - 0.00 in0.0 mm 0.01 in0.3 mm
05:20 PM 36.5°F2.5°C 23.9°F-4.5°C 60% 1.2 mph W1.9 kmh W 2.3 mph3.7 kmh 26.69 in903.8 mb - 0.00 in0.0 mm 0.01 in0.3 mm
05:25 PM 37.0°F2.8°C 24.4°F-4.2°C 60% 3.5 mph W5.6 kmh W 3.5 mph5.6 kmh 26.69 in903.8 mb - 0.00 in0.0 mm 0.01 in0.3 mm
05:30 PM 37.6°F3.1°C 26.5°F-3.1°C 64% Calm Calm 3.5 mph5.6 kmh 26.69 in903.8 mb - 0.00 in0.0 mm 0.01 in0.3 mm
05:35 PM 37.2°F2.9°C 24.2°F-4.3°C 59% Calm Calm -- 26.70 in904.2 mb - 0.00 in0.0 mm 0.01 in0.3 mm
05:40 PM 36.9°F2.7°C 24.3°F-4.3°C 60% 3.5 mph NW5.6 kmh NW 3.5 mph5.6 kmh 26.70 in904.2 mb - 0.00 in0.0 mm 0.01 in0.3 mm
05:45 PM 36.7°F2.6°C 24.1°F-4.4°C 60% 2.3 mph WNW3.7 kmh WNW 3.5 mph5.6 kmh 26.70 in904.2 mb - 0.00 in0.0 mm 0.01 in0.3 mm
05:50 PM 37.0°F2.8°C 24.4°F-4.2°C 60% Calm Calm 2.3 mph3.7 kmh 26.70 in904.2 mb - 0.00 in0.0 mm 0.01 in0.3 mm
05:55 PM 36.5°F2.5°C 23.9°F-4.5°C 60% Calm Calm -- 26.70 in904.2 mb - 0.00 in0.0 mm 0.01 in0.3 mm
06:00 PM 36.1°F2.3°C 23.6°F-4.7°C 60% 2.3 mph WNW3.7 kmh WNW 3.5 mph5.6 kmh 26.70 in904.2 mb - 0.00 in0.0 mm 0.01 in0.3 mm
06:10 PM 36.3°F2.4°C 24.1°F-4.4°C 61% 1.2 mph W1.9 kmh W 3.5 mph5.6 kmh 26.70 in904.2 mb - 0.00 in0.0 mm 0.01 in0.3 mm
06:15 PM 36.3°F2.4°C 24.1°F-4.4°C 61% Calm Calm -- 26.70 in904.2 mb - 0.00 in0.0 mm 0.01 in0.3 mm
06:20 PM 36.0°F2.2°C 23.8°F-4.6°C 61% Calm Calm -- 26.71 in904.5 mb - 0.00 in0.0 mm 0.01 in0.3 mm
06:25 PM 35.8°F2.1°C 23.6°F-4.7°C 61% 1.2 mph W1.9 kmh W 2.3 mph3.7 kmh 26.71 in904.5 mb - 0.00 in0.0 mm 0.01 in0.3 mm
06:30 PM 35.9°F2.2°C 24.2°F-4.3°C 62% 1.2 mph SW1.9 kmh SW 3.5 mph5.6 kmh 26.70 in904.2 mb - 0.00 in0.0 mm 0.01 in0.3 mm
06:35 PM 36.0°F2.2°C 23.8°F-4.6°C 61% Calm Calm 1.2 mph1.9 kmh 26.71 in904.5 mb - 0.00 in0.0 mm 0.01 in0.3 mm
06:40 PM 35.8°F2.1°C 24.0°F-4.4°C 62% 2.3 mph W3.7 kmh W 3.5 mph5.6 kmh 26.70 in904.2 mb - 0.00 in0.0 mm 0.01 in0.3 mm
06:45 PM 36.1°F2.3°C 24.0°F-4.4°C 61% 1.2 mph NW1.9 kmh NW 3.5 mph5.6 kmh 26.71 in904.5 mb - 0.00 in0.0 mm 0.01 in0.3 mm
06:50 PM 36.1°F2.3°C 24.0°F-4.4°C 61% Calm Calm 1.2 mph1.9 kmh 26.71 in904.5 mb - 0.00 in0.0 mm 0.01 in0.3 mm
06:55 PM 35.8°F2.1°C 23.6°F-4.7°C 61% 1.2 mph NW1.9 kmh NW 2.3 mph3.7 kmh 26.71 in904.5 mb - 0.00 in0.0 mm 0.01 in0.3 mm
07:00 PM 35.6°F2.0°C 23.9°F-4.5°C 62% 2.3 mph NW3.7 kmh NW 3.5 mph5.6 kmh 26.71 in904.5 mb - 0.00 in0.0 mm 0.01 in0.3 mm
07:10 PM 35.6°F2.0°C 23.9°F-4.5°C 62% 1.2 mph W1.9 kmh W 2.3 mph3.7 kmh 26.71 in904.5 mb - 0.00 in0.0 mm 0.01 in0.3 mm
07:15 PM 35.8°F2.1°C 24.0°F-4.4°C 62% 3.5 mph NW5.6 kmh NW 4.6 mph7.4 kmh 26.71 in904.5 mb - 0.00 in0.0 mm 0.01 in0.3 mm
07:20 PM 36.0°F2.2°C 24.2°F-4.3°C 62% 1.2 mph W1.9 kmh W 2.3 mph3.7 kmh 26.70 in904.2 mb - 0.00 in0.0 mm 0.01 in0.3 mm
07:25 PM 35.8°F2.1°C 23.6°F-4.7°C 61% 1.2 mph SW1.9 kmh SW 1.2 mph1.9 kmh 26.71 in904.5 mb - 0.00 in0.0 mm 0.01 in0.3 mm
07:30 PM 35.6°F2.0°C 23.5°F-4.7°C 61% Calm Calm 1.2 mph1.9 kmh 26.70 in904.2 mb - 0.00 in0.0 mm 0.01 in0.3 mm
07:35 PM 35.4°F1.9°C 23.7°F-4.6°C 62% Calm Calm 1.2 mph1.9 kmh 26.71 in904.5 mb - 0.00 in0.0 mm 0.01 in0.3 mm
07:40 PM 35.2°F1.8°C 23.9°F-4.5°C 63% 3.5 mph NW5.6 kmh NW 4.6 mph7.4 kmh 26.72 in904.8 mb - 0.00 in0.0 mm 0.01 in0.3 mm
07:45 PM 35.8°F2.1°C 24.0°F-4.4°C 62% 2.3 mph NW3.7 kmh NW 3.5 mph5.6 kmh 26.72 in904.8 mb - 0.00 in0.0 mm 0.01 in0.3 mm
07:50 PM 35.8°F2.1°C 23.7°F-4.6°C 61% Calm Calm 1.2 mph1.9 kmh 26.72 in904.8 mb - 0.00 in0.0 mm 0.01 in0.3 mm
07:55 PM 35.3°F1.8°C 23.5°F-4.7°C 62% Calm Calm -- 26.73 in905.2 mb - 0.00 in0.0 mm 0.01 in0.3 mm
08:00 PM 35.1°F1.7°C 23.3°F-4.8°C 62% 1.2 mph SW1.9 kmh SW 2.3 mph3.7 kmh 26.73 in905.2 mb - 0.00 in0.0 mm 0.01 in0.3 mm
08:10 PM 34.9°F1.6°C 23.6°F-4.7°C 63% Calm Calm 2.3 mph3.7 kmh 26.72 in904.8 mb - 0.00 in0.0 mm 0.01 in0.3 mm
08:15 PM 34.7°F1.5°C 23.4°F-4.8°C 63% Calm Calm 1.2 mph1.9 kmh 26.72 in904.8 mb - 0.00 in0.0 mm 0.01 in0.3 mm
08:20 PM 34.5°F1.4°C 23.2°F-4.9°C 63% Calm Calm 1.2 mph1.9 kmh 26.72 in904.8 mb - 0.00 in0.0 mm 0.01 in0.3 mm
08:25 PM 34.3°F1.3°C 23.4°F-4.8°C 64% 3.5 mph WNW5.6 kmh WNW 3.5 mph5.6 kmh 26.72 in904.8 mb - 0.00 in0.0 mm 0.01 in0.3 mm
08:30 PM 34.9°F1.6°C 23.9°F-4.5°C 64% 2.3 mph NW3.7 kmh NW 3.5 mph5.6 kmh 26.71 in904.5 mb - 0.00 in0.0 mm 0.01 in0.3 mm
08:35 PM 35.1°F1.7°C 24.1°F-4.4°C 64% 3.5 mph WNW5.6 kmh WNW 3.5 mph5.6 kmh 26.71 in904.5 mb - 0.00 in0.0 mm 0.01 in0.3 mm
08:40 PM 35.4°F1.9°C 24.4°F-4.2°C 64% 3.5 mph WNW5.6 kmh WNW 3.5 mph5.6 kmh 26.72 in904.8 mb - 0.00 in0.0 mm 0.01 in0.3 mm
08:45 PM 35.4°F1.9°C 24.5°F-4.2°C 64% Calm Calm -- 26.72 in904.8 mb - 0.00 in0.0 mm 0.01 in0.3 mm
08:50 PM 35.4°F1.9°C 24.1°F-4.4°C 63% 1.2 mph W1.9 kmh W 3.5 mph5.6 kmh 26.72 in904.8 mb - 0.00 in0.0 mm 0.01 in0.3 mm
08:55 PM 35.4°F1.9°C 24.1°F-4.4°C 63% 3.5 mph NW5.6 kmh NW 3.5 mph5.6 kmh 26.72 in904.8 mb - 0.00 in0.0 mm 0.01 in0.3 mm
09:00 PM 35.6°F2.0°C 23.9°F-4.5°C 62% 2.3 mph W3.7 kmh W 3.5 mph5.6 kmh 26.72 in904.8 mb - 0.00 in0.0 mm 0.01 in0.3 mm
09:10 PM 35.2°F1.8°C 23.9°F-4.5°C 63% 1.2 mph NW1.9 kmh NW 3.5 mph5.6 kmh 26.72 in904.8 mb - 0.00 in0.0 mm 0.01 in0.3 mm
09:15 PM 35.6°F2.0°C 23.9°F-4.5°C 62% 1.2 mph W1.9 kmh W 2.3 mph3.7 kmh 26.72 in904.8 mb - 0.00 in0.0 mm 0.01 in0.3 mm
09:20 PM 35.4°F1.9°C 24.1°F-4.4°C 63% 1.2 mph NW1.9 kmh NW 3.5 mph5.6 kmh 26.72 in904.8 mb - 0.00 in0.0 mm 0.01 in0.3 mm
09:25 PM 35.4°F1.9°C 24.1°F-4.4°C 63% 2.3 mph NW3.7 kmh NW 3.5 mph5.6 kmh 26.72 in904.8 mb - 0.00 in0.0 mm 0.01 in0.3 mm
09:30 PM 35.9°F2.2°C 23.8°F-4.6°C 61% 2.3 mph WNW3.7 kmh WNW 4.6 mph7.4 kmh 26.72 in904.8 mb - 0.00 in0.0 mm 0.01 in0.3 mm
09:35 PM 35.8°F2.1°C 23.6°F-4.7°C 61% Calm Calm 1.2 mph1.9 kmh 26.72 in904.8 mb - 0.00 in0.0 mm 0.01 in0.3 mm
09:40 PM 35.6°F2.0°C 23.5°F-4.7°C 61% 3.5 mph NW5.6 kmh NW 4.6 mph7.4 kmh 26.73 in905.2 mb - 0.00 in0.0 mm 0.01 in0.3 mm
09:45 PM 36.5°F2.5°C 24.3°F-4.3°C 61% 3.5 mph NW5.6 kmh NW 4.6 mph7.4 kmh 26.73 in905.2 mb - 0.00 in0.0 mm 0.01 in0.3 mm
09:50 PM 36.9°F2.7°C 23.9°F-4.5°C 59% 3.5 mph W5.6 kmh W 5.8 mph9.3 kmh 26.73 in905.2 mb - 0.00 in0.0 mm 0.01 in0.3 mm
09:55 PM 36.2°F2.3°C 23.2°F-4.9°C 59% 2.3 mph NW3.7 kmh NW 3.5 mph5.6 kmh 26.73 in905.2 mb - 0.00 in0.0 mm 0.01 in0.3 mm
10:00 PM 35.8°F2.1°C 23.3°F-4.8°C 60% 2.3 mph W3.7 kmh W 3.5 mph5.6 kmh 26.74 in905.5 mb - 0.00 in0.0 mm 0.01 in0.3 mm
10:10 PM 36.3°F2.4°C 23.8°F-4.6°C 60% 2.3 mph W3.7 kmh W 3.5 mph5.6 kmh 26.73 in905.2 mb - 0.00 in0.0 mm 0.01 in0.3 mm
10:15 PM 36.3°F2.4°C 23.8°F-4.6°C 60% 2.3 mph S3.7 kmh S 3.5 mph5.6 kmh 26.74 in905.5 mb - 0.00 in0.0 mm 0.01 in0.3 mm
10:20 PM 35.4°F1.9°C 22.9°F-5.1°C 60% 1.2 mph SW1.9 kmh SW 1.2 mph1.9 kmh 26.74 in905.5 mb - 0.00 in0.0 mm 0.01 in0.3 mm
10:25 PM 35.1°F1.7°C 23.0°F-5.0°C 61% 1.2 mph W1.9 kmh W 2.3 mph3.7 kmh 26.73 in905.2 mb - 0.00 in0.0 mm 0.01 in0.3 mm
10:30 PM 35.1°F1.7°C 23.0°F-5.0°C 61% 1.2 mph W1.9 kmh W 2.3 mph3.7 kmh 26.73 in905.2 mb - 0.00 in0.0 mm 0.01 in0.3 mm
10:35 PM 35.4°F1.9°C 23.7°F-4.6°C 62% 1.2 mph N1.9 kmh N 2.3 mph3.7 kmh 26.73 in905.2 mb - 0.00 in0.0 mm 0.01 in0.3 mm
10:40 PM 35.4°F1.9°C 23.7°F-4.6°C 62% 2.3 mph NW3.7 kmh NW 3.5 mph5.6 kmh 26.73 in905.2 mb - 0.00 in0.0 mm 0.01 in0.3 mm
10:45 PM 36.0°F2.2°C 23.8°F-4.6°C 61% 1.2 mph NW1.9 kmh NW 2.3 mph3.7 kmh 26.73 in905.2 mb - 0.00 in0.0 mm 0.01 in0.3 mm
10:50 PM 36.5°F2.5°C 23.9°F-4.5°C 60% 2.3 mph S3.7 kmh S 3.5 mph5.6 kmh 26.73 in905.2 mb - 0.00 in0.0 mm 0.01 in0.3 mm
10:55 PM 37.0°F2.8°C 24.4°F-4.2°C 60% 2.3 mph W3.7 kmh W 4.6 mph7.4 kmh 26.73 in905.2 mb - 0.00 in0.0 mm 0.01 in0.3 mm
11:00 PM 37.7°F3.2°C 26.3°F-3.2°C 63% 3.5 mph NW5.6 kmh NW 4.6 mph7.4 kmh 26.73 in905.2 mb - 0.00 in0.0 mm 0.01 in0.3 mm
11:10 PM 38.5°F3.6°C 26.2°F-3.2°C 61% 1.2 mph NW1.9 kmh NW 3.5 mph5.6 kmh 26.72 in904.8 mb - 0.00 in0.0 mm 0.01 in0.3 mm
11:15 PM 37.6°F3.1°C 25.4°F-3.7°C 61% Calm Calm 1.2 mph1.9 kmh 26.72 in904.8 mb - 0.00 in0.0 mm 0.01 in0.3 mm
11:20 PM 37.2°F2.9°C 23.8°F-4.6°C 58% 3.5 mph NW5.6 kmh NW 3.5 mph5.6 kmh 26.72 in904.8 mb - 0.00 in0.0 mm 0.01 in0.3 mm
11:25 PM 37.0°F2.8°C 23.6°F-4.7°C 58% Calm Calm 1.2 mph1.9 kmh 26.72 in904.8 mb - 0.00 in0.0 mm 0.01 in0.3 mm
11:30 PM 36.5°F2.5°C 23.1°F-4.9°C 58% 1.2 mph S1.9 kmh S 2.3 mph3.7 kmh 26.72 in904.8 mb - 0.00 in0.0 mm 0.01 in0.3 mm
11:35 PM 36.0°F2.2°C 22.6°F-5.2°C 58% 3.5 mph NW5.6 kmh NW 3.5 mph5.6 kmh 26.72 in904.8 mb - 0.00 in0.0 mm 0.01 in0.3 mm
11:40 PM 36.8°F2.7°C 23.8°F-4.6°C 59% Calm Calm 1.2 mph1.9 kmh 26.72 in904.8 mb - 0.00 in0.0 mm 0.01 in0.3 mm
11:45 PM 37.0°F2.8°C 24.0°F-4.4°C 59% Calm Calm 1.2 mph1.9 kmh 26.72 in904.8 mb - 0.00 in0.0 mm 0.01 in0.3 mm
11:50 PM 36.5°F2.5°C 23.5°F-4.7°C 59% 3.5 mph NW5.6 kmh NW 3.5 mph5.6 kmh 26.72 in904.8 mb - 0.00 in0.0 mm 0.01 in0.3 mm
11:55 PM 36.8°F2.7°C 23.8°F-4.6°C 59% 1.2 mph W1.9 kmh W 2.3 mph3.7 kmh 26.71 in904.5 mb - 0.00 in0.0 mm 0.01 in0.3 mm